Time;durP1;ratioP1;P1;durP2;ratioP2;P2;SDS_P1;SDS_P2;PMS_P1;PMS_P2;Temp;Humidity;BMP_temperature;BMP_pressure;BME280_temperature;BME280_humidity;BME280_pressure;Samples;Min_cycle;Max_cycle;Signal;HPM_P1;HPM_P2
2023/04/30 00:00:51;;;;;;;8.40;5.00;;;14.00;88.60;;;;;;4995462;28;20034;-74
2023/04/30 00:03:17;;;;;;;7.60;4.82;;;13.90;88.80;;;;;;4995360;28;20376;-71
2023/04/30 00:05:42;;;;;;;8.52;5.38;;;13.90;89.00;;;;;;4995518;28;20034;-73
2023/04/30 00:08:08;;;;;;;6.30;4.80;;;13.90;89.20;;;;;;4995671;28;20058;-72
2023/04/30 00:10:34;;;;;;;7.25;5.00;;;13.90;89.40;;;;;;4994031;28;20062;-75
2023/04/30 00:12:59;;;;;;;7.45;5.20;;;13.90;89.60;;;;;;4995118;28;20468;-70
2023/04/30 00:15:25;;;;;;;7.00;5.63;;;13.80;89.60;;;;;;4995238;28;20034;-71
2023/04/30 00:17:52;;;;;;;7.07;5.25;;;13.90;89.80;;;;;;4995107;28;20025;-73
2023/04/30 00:20:17;;;;;;;5.90;5.22;;;13.80;89.90;;;;;;4995177;28;20029;-69
2023/04/30 00:22:43;;;;;;;7.40;5.82;;;13.80;90.00;;;;;;4995092;28;20030;-74
2023/04/30 00:25:08;;;;;;;6.10;5.07;;;13.80;90.10;;;;;;4995098;28;20408;-69
2023/04/30 00:27:34;;;;;;;9.63;5.95;;;13.80;90.10;;;;;;4994671;28;20030;-71
2023/04/30 00:30:00;;;;;;;8.13;5.78;;;13.80;90.10;;;;;;4995008;28;20026;-73
2023/04/30 00:32:25;;;;;;;9.98;5.85;;;13.70;90.10;;;;;;4994896;28;20050;-73
2023/04/30 00:34:51;;;;;;;8.05;5.30;;;13.70;90.20;;;;;;4994616;28;20397;-73
2023/04/30 00:37:16;;;;;;;7.05;5.72;;;13.70;90.10;;;;;;4994422;28;20563;-74
2023/04/30 00:39:42;;;;;;;7.82;5.40;;;13.70;90.20;;;;;;4994581;28;20058;-67
2023/04/30 00:42:07;;;;;;;5.95;5.35;;;13.70;90.20;;;;;;4994680;28;20018;-73
2023/04/30 00:44:33;;;;;;;9.82;6.20;;;13.70;90.20;;;;;;4994754;28;20486;-74
2023/04/30 00:46:59;;;;;;;9.30;6.82;;;13.70;90.20;;;;;;4994707;28;20033;-73
2023/04/30 00:49:24;;;;;;;7.85;6.10;;;13.70;90.20;;;;;;4994282;28;20082;-70
2023/04/30 00:51:51;;;;;;;8.55;5.78;;;13.60;90.20;;;;;;4994223;28;20153;-69
2023/04/30 00:54:19;;;;;;;8.77;6.20;;;13.60;90.30;;;;;;4994425;28;20030;-69
2023/04/30 00:56:45;;;;;;;9.00;6.40;;;13.60;90.30;;;;;;4994432;28;20030;-69
2023/04/30 00:59:12;;;;;;;8.93;6.40;;;13.60;90.40;;;;;;4994386;28;20022;-73
2023/04/30 01:01:38;;;;;;;8.02;6.30;;;13.60;90.40;;;;;;4994335;28;20563;-68
2023/04/30 01:04:04;;;;;;;7.70;6.07;;;13.60;90.40;;;;;;4994186;28;20105;-76
2023/04/30 01:06:30;;;;;;;7.97;6.40;;;13.60;90.50;;;;;;4993999;28;20106;-65
2023/04/30 01:08:56;;;;;;;10.60;7.07;;;13.50;90.60;;;;;;4994442;28;20376;-67
2023/04/30 01:11:29;;;;;;;9.13;6.30;;;13.50;90.60;;;;;;4994073;28;20023;-69
2023/04/30 01:14:09;;;;;;;11.43;6.72;;;13.50;90.70;;;;;;4993996;28;20034;-68
2023/04/30 01:16:42;;;;;;;8.43;6.82;;;13.50;90.80;;;;;;4993936;28;20428;-67
2023/04/30 01:19:34;;;;;;;7.88;6.30;;;13.50;90.80;;;;;;4993838;28;20428;-69
2023/04/30 01:22:02;;;;;;;11.70;7.28;;;13.40;90.90;;;;;;4993900;28;20019;-68
2023/04/30 01:24:53;;;;;;;11.05;7.13;;;13.40;91.10;;;;;;4993727;28;20033;-68
2023/04/30 01:27:40;;;;;;;9.85;6.90;;;13.40;91.00;;;;;;4992713;28;20117;-78
2023/04/30 01:30:07;;;;;;;9.52;7.57;;;13.30;91.10;;;;;;4993110;28;20065;-74
2023/04/30 01:32:33;;;;;;;9.10;6.97;;;13.30;91.10;;;;;;4993848;28;20022;-73
2023/04/30 01:34:58;;;;;;;8.25;7.07;;;13.30;91.10;;;;;;4993715;28;20523;-69
2023/04/30 01:37:32;;;;;;;9.48;8.05;;;13.30;91.20;;;;;;4993340;28;20442;-70
2023/04/30 01:40:43;;;;;;;8.23;7.35;;;13.30;91.20;;;;;;4993668;28;20034;-71
2023/04/30 01:43:18;;;;;;;7.72;6.85;;;13.30;91.30;;;;;;4933731;29;20028;-67
2023/04/30 01:45:50;;;;;;;10.25;7.45;;;13.30;91.30;;;;;;4933566;29;20032;-77
2023/04/30 01:48:32;;;;;;;9.30;7.43;;;13.30;91.30;;;;;;4970551;28;20483;-73
2023/04/30 01:51:14;;;;;;;11.52;7.38;;;13.20;91.40;;;;;;4993152;28;20034;-71
2023/04/30 01:53:42;;;;;;;15.45;7.75;;;13.20;91.40;;;;;;4993665;28;20077;-67
2023/04/30 01:56:37;;;;;;;13.00;7.55;;;13.20;91.40;;;;;;4993553;28;20034;-69
2023/04/30 01:59:03;;;;;;;11.38;7.20;;;13.10;91.50;;;;;;4994023;28;20414;-70
2023/04/30 02:01:31;;;;;;;9.13;7.70;;;13.20;91.50;;;;;;4993365;28;20038;-73
2023/04/30 02:03:57;;;;;;;11.73;8.23;;;13.20;91.50;;;;;;4993552;28;20092;-70
2023/04/30 02:06:30;;;;;;;9.75;7.55;;;13.10;91.50;;;;;;4993376;28;20069;-72
2023/04/30 02:09:01;;;;;;;11.85;7.97;;;13.10;91.50;;;;;;4993458;28;20069;-70
2023/04/30 02:11:27;;;;;;;9.02;7.90;;;13.10;91.60;;;;;;4993315;28;20061;-71
2023/04/30 02:13:52;;;;;;;11.80;8.70;;;13.10;91.60;;;;;;4993612;28;20103;-70
2023/04/30 02:16:18;;;;;;;12.32;8.57;;;13.10;91.60;;;;;;4993418;28;20034;-69
2023/04/30 02:18:45;;;;;;;12.02;9.13;;;13.10;91.70;;;;;;4993184;28;20109;-73
2023/04/30 02:21:10;;;;;;;13.15;8.90;;;13.10;91.70;;;;;;4993242;28;20050;-66
2023/04/30 02:23:36;;;;;;;10.25;8.05;;;13.00;91.80;;;;;;4993398;28;20058;-72
2023/04/30 02:26:02;;;;;;;10.77;9.40;;;13.10;91.90;;;;;;4993294;28;20026;-71
2023/04/30 02:28:28;;;;;;;11.07;9.40;;;13.00;91.90;;;;;;4993384;28;20022;-68
2023/04/30 02:30:53;;;;;;;11.43;9.02;;;13.00;92.00;;;;;;4993103;28;20158;-70
2023/04/30 02:33:19;;;;;;;13.60;9.32;;;13.00;92.00;;;;;;4992990;28;20022;-67
2023/04/30 02:35:45;;;;;;;11.10;9.57;;;13.00;92.20;;;;;;4993148;28;20084;-72
2023/04/30 02:38:11;;;;;;;13.68;9.85;;;13.00;92.20;;;;;;4993485;28;20026;-69
2023/04/30 02:40:36;;;;;;;13.32;10.30;;;12.90;92.20;;;;;;4993253;28;20372;-70
2023/04/30 02:43:02;;;;;;;12.50;10.75;;;12.90;92.20;;;;;;4996646;28;20058;-67
2023/04/30 02:45:29;;;;;;;10.73;9.38;;;12.90;92.30;;;;;;4996804;28;20149;-69
2023/04/30 02:47:55;;;;;;;15.05;10.52;;;12.90;92.40;;;;;;4996483;28;20029;-70
2023/04/30 02:50:21;;;;;;;14.57;10.55;;;12.90;92.40;;;;;;4996802;28;20031;-78
2023/04/30 02:52:46;;;;;;;13.82;9.70;;;12.90;92.40;;;;;;4996698;28;20018;-70
2023/04/30 02:55:12;;;;;;;12.85;10.32;;;12.80;92.50;;;;;;4996612;28;20427;-72
2023/04/30 02:57:38;;;;;;;11.82;9.63;;;12.80;92.80;;;;;;4996652;28;20030;-72
2023/04/30 03:00:04;;;;;;;13.00;11.23;;;12.80;92.50;;;;;;4996666;28;20022;-68
2023/04/30 03:02:30;;;;;;;12.13;10.30;;;12.80;92.60;;;;;;4996441;28;20100;-76
2023/04/30 03:04:55;;;;;;;15.82;11.23;;;12.80;92.60;;;;;;4995751;28;20070;-72
2023/04/30 03:07:21;;;;;;;12.38;10.30;;;12.70;92.60;;;;;;4993511;28;20050;-75
2023/04/30 03:09:47;;;;;;;12.90;10.80;;;12.70;92.60;;;;;;4996127;28;20038;-70
2023/04/30 03:12:13;;;;;;;13.00;11.18;;;12.70;92.70;;;;;;4994904;28;20476;-69
2023/04/30 03:14:39;;;;;;;12.40;10.55;;;12.70;92.80;;;;;;4994580;28;20261;-68
2023/04/30 03:17:05;;;;;;;15.13;11.45;;;12.70;92.80;;;;;;4996105;28;20072;-74
2023/04/30 03:19:31;;;;;;;12.48;10.48;;;12.70;92.90;;;;;;4996509;28;20029;-75
2023/04/30 03:21:57;;;;;;;12.52;10.25;;;12.60;92.90;;;;;;4995833;28;20019;-70
2023/04/30 03:24:23;;;;;;;12.23;10.07;;;12.60;93.00;;;;;;4996174;28;20357;-74
2023/04/30 03:26:49;;;;;;;13.93;10.57;;;12.60;93.00;;;;;;4996164;28;20025;-74
2023/04/30 03:29:15;;;;;;;14.80;9.88;;;12.60;93.20;;;;;;4996060;28;20611;-70
2023/04/30 03:31:41;;;;;;;13.45;10.75;;;12.60;93.20;;;;;;4995790;28;20091;-69
2023/04/30 03:34:07;;;;;;;12.38;10.20;;;12.60;93.20;;;;;;4995858;28;20472;-72
2023/04/30 03:36:33;;;;;;;15.35;11.43;;;12.50;93.20;;;;;;4995769;28;20039;-75
2023/04/30 03:38:59;;;;;;;13.52;10.75;;;12.50;93.30;;;;;;4995921;28;20100;-74
2023/04/30 03:41:25;;;;;;;14.10;11.18;;;12.50;93.30;;;;;;4995902;28;20026;-76
2023/04/30 03:43:51;;;;;;;12.57;10.50;;;12.50;93.40;;;;;;4995807;28;20034;-72
2023/04/30 03:46:17;;;;;;;11.82;10.30;;;12.50;93.40;;;;;;4995656;28;20175;-71
2023/04/30 03:48:43;;;;;;;13.68;11.05;;;12.50;93.80;;;;;;4995801;28;20050;-77
2023/04/30 03:51:09;;;;;;;15.60;12.07;;;12.50;93.60;;;;;;4995498;28;20031;-68
2023/04/30 03:53:34;;;;;;;16.13;10.90;;;12.50;93.60;;;;;;4994940;28;20533;-68
2023/04/30 03:56:01;;;;;;;12.90;10.73;;;12.40;93.60;;;;;;4995566;28;20026;-67
2023/04/30 03:58:26;;;;;;;16.40;11.30;;;12.40;93.70;;;;;;4995577;28;20080;-69
2023/04/30 04:00:52;;;;;;;12.70;10.38;;;12.40;93.80;;;;;;4995506;28;20535;-72
2023/04/30 04:03:19;;;;;;;13.02;10.95;;;12.30;93.80;;;;;;4995411;28;20534;-67
2023/04/30 04:05:44;;;;;;;17.02;11.30;;;12.40;93.90;;;;;;4995365;28;20431;-72
2023/04/30 04:08:10;;;;;;;13.82;11.48;;;12.30;94.00;;;;;;4995188;28;20022;-69
2023/04/30 04:10:36;;;;;;;12.23;10.93;;;12.30;94.00;;;;;;4995166;28;20046;-73
2023/04/30 04:13:01;;;;;;;14.23;10.52;;;12.30;94.10;;;;;;4995002;28;20018;-73
2023/04/30 04:15:27;;;;;;;14.02;11.10;;;12.30;94.10;;;;;;4994970;28;20471;-71
2023/04/30 04:17:52;;;;;;;14.00;10.40;;;12.30;94.20;;;;;;4995498;28;20042;-70
2023/04/30 04:20:18;;;;;;;13.80;12.10;;;12.30;94.20;;;;;;4995135;28;20068;-72
2023/04/30 04:22:44;;;;;;;13.45;11.05;;;12.20;94.30;;;;;;4994887;28;20022;-69
2023/04/30 04:25:09;;;;;;;16.08;12.18;;;12.20;94.30;;;;;;4994884;28;20022;-70
2023/04/30 04:27:35;;;;;;;14.27;11.25;;;12.20;94.40;;;;;;4995041;28;20034;-75
2023/04/30 04:30:04;;;;;;;12.57;10.77;;;12.20;94.40;;;;;;4994877;28;20491;-69
2023/04/30 04:32:31;;;;;;;12.85;11.10;;;12.10;94.50;;;;;;4994953;28;20023;-70
2023/04/30 04:34:57;;;;;;;14.10;11.27;;;12.20;94.60;;;;;;4994625;28;20391;-74
2023/04/30 04:37:23;;;;;;;16.05;11.77;;;12.20;94.50;;;;;;4994667;28;20552;-69
2023/04/30 04:39:48;;;;;;;16.92;11.55;;;12.20;94.50;;;;;;4994744;28;20548;-70
2023/04/30 04:42:16;;;;;;;16.92;11.10;;;12.20;94.40;;;;;;4994774;28;20526;-72
2023/04/30 04:44:42;;;;;;;16.92;12.55;;;12.10;94.40;;;;;;4994273;28;20040;-74
2023/04/30 04:47:09;;;;;;;18.60;14.05;;;12.20;94.40;;;;;;4994559;28;20014;-69
2023/04/30 04:49:34;;;;;;;23.48;19.20;;;12.20;94.50;;;;;;4994441;28;20361;-72
2023/04/30 04:52:00;;;;;;;56.33;39.30;;;12.20;94.50;;;;;;4994407;28;20089;-68
2023/04/30 04:54:26;;;;;;;52.13;36.60;;;12.30;94.50;;;;;;4992773;28;20026;-69
2023/04/30 04:56:52;;;;;;;35.20;27.48;;;12.30;94.50;;;;;;4994066;28;20101;-72
2023/04/30 04:59:17;;;;;;;24.98;19.52;;;12.40;94.40;;;;;;4987204;28;20035;-71
2023/04/30 05:01:43;;;;;;;19.33;13.10;;;12.40;94.70;;;;;;4987757;28;20030;-76
2023/04/30 05:04:09;;;;;;;16.02;12.77;;;12.40;94.40;;;;;;4993928;28;20050;-75
2023/04/30 05:06:34;;;;;;;16.83;12.40;;;12.40;94.50;;;;;;4993376;28;20038;-80
2023/04/30 05:09:00;;;;;;;41.55;30.48;;;12.40;94.50;;;;;;4988106;28;20596;-68
2023/04/30 05:11:26;;;;;;;44.80;30.15;;;12.40;94.40;;;;;;4980956;28;20391;-74
2023/04/30 05:13:51;;;;;;;45.80;33.55;;;12.40;94.40;;;;;;4993732;28;20066;-70
2023/04/30 05:16:17;;;;;;;21.20;16.92;;;12.40;94.60;;;;;;4994202;28;20089;-74
2023/04/30 05:18:42;;;;;;;27.02;18.73;;;12.50;94.60;;;;;;4993251;28;20023;-74
2023/04/30 05:21:08;;;;;;;18.63;14.05;;;12.40;94.70;;;;;;4993798;28;20030;-70
2023/04/30 05:23:33;;;;;;;21.13;14.07;;;12.50;94.70;;;;;;4993928;28;20439;-78
2023/04/30 05:25:59;;;;;;;20.10;15.70;;;12.50;94.70;;;;;;4983832;28;20030;-70
2023/04/30 05:28:25;;;;;;;27.25;19.00;;;12.40;94.80;;;;;;4993350;28;20037;-67
2023/04/30 05:30:50;;;;;;;29.40;18.42;;;12.50;94.80;;;;;;4993608;28;20042;-72
2023/04/30 05:33:16;;;;;;;29.77;22.88;;;12.50;94.70;;;;;;4983904;28;20027;-69
2023/04/30 05:35:42;;;;;;;37.45;25.40;;;12.50;94.80;;;;;;4990507;28;20038;-74
2023/04/30 05:38:07;;;;;;;27.60;21.05;;;12.50;94.90;;;;;;4992914;28;20037;-70
2023/04/30 05:40:33;;;;;;;24.77;18.83;;;12.50;95.00;;;;;;4993302;28;20392;-69
2023/04/30 05:42:58;;;;;;;19.25;15.50;;;12.60;95.10;;;;;;4991543;28;20018;-71
2023/04/30 05:45:24;;;;;;;21.75;17.55;;;12.70;95.10;;;;;;4992835;28;20499;-71
2023/04/30 05:47:49;;;;;;;23.08;17.63;;;12.80;95.10;;;;;;4992939;28;20022;-70
2023/04/30 05:50:15;;;;;;;28.15;21.83;;;12.90;95.10;;;;;;4992815;28;20364;-72
2023/04/30 05:52:41;;;;;;;25.73;17.45;;;13.00;95.10;;;;;;4992845;28;20028;-69
2023/04/30 05:55:07;;;;;;;19.42;16.48;;;13.10;94.90;;;;;;4993020;28;20383;-68
2023/04/30 05:57:34;;;;;;;24.17;18.00;;;13.20;94.80;;;;;;4992894;28;20495;-69
2023/04/30 05:59:59;;;;;;;22.20;17.10;;;13.30;94.60;;;;;;4992805;28;20034;-73
2023/04/30 06:02:25;;;;;;;24.55;18.92;;;13.40;94.50;;;;;;4992358;28;20130;-69
2023/04/30 06:04:51;;;;;;;21.80;17.52;;;13.40;94.50;;;;;;4984800;28;20109;-72
2023/04/30 06:07:16;;;;;;;24.38;18.92;;;13.50;94.30;;;;;;4992075;28;20026;-69
2023/04/30 06:09:42;;;;;;;20.67;15.07;;;13.60;94.50;;;;;;4992801;28;20038;-72
2023/04/30 06:12:07;;;;;;;24.83;17.33;;;13.70;94.10;;;;;;4992514;28;20022;-68
2023/04/30 06:14:34;;;;;;;19.55;14.70;;;13.70;93.80;;;;;;4993320;28;20449;-72
2023/04/30 06:17:00;;;;;;;19.27;13.38;;;13.80;93.80;;;;;;4998738;28;20118;-73
2023/04/30 06:19:26;;;;;;;17.70;15.40;;;13.80;93.90;;;;;;4996968;28;20407;-69
2023/04/30 06:21:51;;;;;;;19.13;14.35;;;13.90;93.70;;;;;;4995650;28;20466;-69
2023/04/30 06:24:17;;;;;;;15.45;13.55;;;14.00;93.60;;;;;;4994441;28;20173;-74
2023/04/30 06:26:43;;;;;;;23.98;17.42;;;14.00;93.50;;;;;;4997396;28;20022;-67
2023/04/30 06:29:08;;;;;;;17.92;12.80;;;14.10;93.20;;;;;;5009209;28;20489;-71
2023/04/30 06:31:34;;;;;;;20.05;13.23;;;14.20;93.10;;;;;;4996882;28;20026;-71
2023/04/30 06:33:59;;;;;;;19.42;12.43;;;14.20;92.90;;;;;;4994213;28;20019;-70
2023/04/30 06:36:25;;;;;;;15.73;12.65;;;14.30;93.00;;;;;;4995497;28;20050;-70
2023/04/30 06:38:50;;;;;;;16.10;13.55;;;14.40;93.10;;;;;;4995678;28;20019;-71
2023/04/30 06:41:16;;;;;;;14.02;12.18;;;14.40;93.00;;;;;;4995947;28;20522;-67
2023/04/30 06:43:45;;;;;;;14.82;12.35;;;14.50;92.60;;;;;;4995404;28;20109;-69
2023/04/30 06:46:10;;;;;;;13.35;11.60;;;14.50;92.50;;;;;;4994382;28;20026;-66
2023/04/30 06:48:36;;;;;;;13.40;11.93;;;14.60;92.40;;;;;;4993412;28;20026;-74
2023/04/30 06:51:01;;;;;;;13.27;11.00;;;14.70;92.50;;;;;;4995377;28;20077;-68
2023/04/30 06:53:27;;;;;;;14.32;11.35;;;14.80;92.30;;;;;;4995110;28;20033;-68
2023/04/30 06:55:53;;;;;;;12.98;10.40;;;14.80;92.20;;;;;;4994047;28;20492;-70
2023/04/30 06:58:19;;;;;;;12.70;11.02;;;14.90;92.00;;;;;;4995484;28;20503;-73
2023/04/30 07:00:44;;;;;;;14.65;11.85;;;15.00;91.90;;;;;;4993644;28;20031;-70
2023/04/30 07:03:10;;;;;;;13.68;11.35;;;15.10;91.80;;;;;;4995620;28;20388;-71
2023/04/30 07:05:35;;;;;;;11.15;9.27;;;15.20;91.50;;;;;;4995209;28;20026;-68
2023/04/30 07:08:02;;;;;;;14.30;11.52;;;15.30;91.60;;;;;;4991256;28;20031;-69
2023/04/30 07:10:28;;;;;;;12.70;11.30;;;15.30;91.10;;;;;;4992533;28;20038;-69
2023/04/30 07:12:55;;;;;;;14.73;11.25;;;15.40;91.10;;;;;;4995557;28;20058;-71
2023/04/30 07:15:20;;;;;;;13.77;11.02;;;15.40;91.00;;;;;;4991147;28;20060;-72
2023/04/30 07:17:46;;;;;;;11.60;10.35;;;15.50;91.10;;;;;;4993754;28;20832;-73
2023/04/30 07:20:15;;;;;;;16.48;12.10;;;15.60;91.20;;;;;;4990708;28;20045;-67
2023/04/30 07:22:43;;;;;;;12.85;10.70;;;15.70;91.40;;;;;;4989710;28;20026;-69
2023/04/30 07:25:09;;;;;;;14.65;11.68;;;15.70;91.30;;;;;;4992041;28;20475;-69
2023/04/30 07:27:35;;;;;;;13.45;11.48;;;15.80;91.30;;;;;;4994898;28;20349;-70
2023/04/30 07:30:01;;;;;;;12.57;11.27;;;15.90;91.50;;;;;;4992668;28;20069;-71
2023/04/30 07:32:26;;;;;;;13.20;11.50;;;16.00;90.90;;;;;;4992979;28;20026;-68
2023/04/30 07:34:52;;;;;;;17.23;12.88;;;16.00;90.80;;;;;;4993067;28;20034;-71
2023/04/30 07:37:19;;;;;;;16.17;12.07;;;16.10;90.60;;;;;;4994299;28;20491;-70
2023/04/30 07:39:44;;;;;;;15.05;12.43;;;16.10;90.40;;;;;;4992944;28;20030;-71
2023/04/30 07:42:10;;;;;;;15.75;12.63;;;16.20;90.50;;;;;;4994366;28;20085;-67
2023/04/30 07:44:35;;;;;;;14.23;11.90;;;16.30;90.20;;;;;;4991529;28;20034;-69
2023/04/30 07:47:01;;;;;;;13.88;11.75;;;16.30;90.50;;;;;;4990325;28;20076;-73
2023/04/30 07:49:27;;;;;;;14.55;13.00;;;16.40;90.30;;;;;;4992427;28;20089;-71
2023/04/30 07:51:53;;;;;;;15.40;12.65;;;16.50;90.10;;;;;;4993180;28;20495;-67
2023/04/30 07:54:19;;;;;;;14.43;12.93;;;16.50;90.00;;;;;;4984686;28;20029;-74
2023/04/30 07:56:44;;;;;;;18.30;12.30;;;16.60;89.80;;;;;;4990183;28;20492;-73
2023/04/30 07:59:10;;;;;;;14.68;12.95;;;16.60;90.00;;;;;;4992965;28;20022;-70
2023/04/30 08:01:35;;;;;;;14.38;12.48;;;16.70;90.00;;;;;;4990648;28;20034;-69
2023/04/30 08:04:01;;;;;;;14.80;13.05;;;16.70;89.90;;;;;;4991132;28;20145;-69
2023/04/30 08:06:27;;;;;;;15.18;12.55;;;16.80;90.10;;;;;;4992499;28;20387;-70
2023/04/30 08:08:53;;;;;;;15.18;11.93;;;16.90;90.00;;;;;;4989732;28;20025;-68
2023/04/30 08:11:19;;;;;;;15.13;12.02;;;17.00;89.10;;;;;;4994049;28;20058;-71
2023/04/30 08:13:45;;;;;;;16.33;12.35;;;17.00;89.50;;;;;;4994397;28;20054;-68
2023/04/30 08:16:11;;;;;;;14.93;12.27;;;17.00;89.60;;;;;;4993906;28;20068;-66
2023/04/30 08:18:43;;;;;;;14.65;12.15;;;17.00;88.80;;;;;;4991900;28;20058;-72
2023/04/30 08:21:09;;;;;;;19.52;13.30;;;17.10;88.50;;;;;;4986178;28;20038;-68
2023/04/30 08:23:35;;;;;;;14.73;13.05;;;17.10;89.20;;;;;;4990501;28;20014;-69
2023/04/30 08:26:00;;;;;;;13.80;11.82;;;17.20;89.30;;;;;;4983455;28;20034;-69
2023/04/30 08:28:26;;;;;;;13.55;12.05;;;17.20;88.30;;;;;;4995262;28;20476;-69
2023/04/30 08:30:51;;;;;;;14.13;11.75;;;17.30;87.50;;;;;;4990644;28;20043;-72
2023/04/30 08:33:17;;;;;;;15.50;11.80;;;17.30;87.20;;;;;;4995504;28;20503;-71
2023/04/30 08:35:43;;;;;;;13.38;11.98;;;17.30;87.30;;;;;;4995072;28;20026;-69
2023/04/30 08:38:08;;;;;;;14.57;11.73;;;17.30;88.40;;;;;;4991303;28;20484;-70
2023/04/30 08:40:35;;;;;;;15.65;11.23;;;17.40;87.50;;;;;;4989683;28;20069;-69
2023/04/30 08:43:05;;;;;;;13.10;11.50;;;17.40;87.20;;;;;;4992837;28;20014;-70
2023/04/30 08:45:32;;;;;;;12.95;11.63;;;17.40;87.10;;;;;;4993319;28;20037;-71
2023/04/30 08:47:59;;;;;;;13.80;11.75;;;17.40;87.40;;;;;;4992933;28;20430;-68
2023/04/30 08:50:25;;;;;;;15.45;11.63;;;17.50;86.80;;;;;;4991568;28;20484;-71
2023/04/30 08:52:51;;;;;;;12.30;10.38;;;17.50;87.00;;;;;;4993176;28;20391;-75
2023/04/30 08:55:16;;;;;;;12.77;11.35;;;17.50;86.70;;;;;;4992899;28;20512;-68
2023/04/30 08:57:42;;;;;;;13.63;11.10;;;17.50;87.20;;;;;;4992662;28;20032;-71
2023/04/30 09:00:08;;;;;;;12.57;10.60;;;17.50;86.20;;;;;;4992929;28;20387;-72
2023/04/30 09:02:38;;;;;;;11.85;7.97;;;17.50;86.20;;;;;;4993154;28;20037;-69
2023/04/30 09:05:11;;;;;;;12.55;10.40;;;17.50;87.50;;;;;;4985029;28;20470;-68
2023/04/30 09:07:45;;;;;;;12.18;5.53;;;17.50;87.90;;;;;;4988259;28;20038;-66
2023/04/30 09:10:16;;;;;;;11.30;9.85;;;17.50;89.20;;;;;;4985355;28;20038;-68
2023/04/30 09:12:44;;;;;;;11.50;10.18;;;17.50;87.70;;;;;;4989474;28;20431;-68
2023/04/30 09:15:11;;;;;;;11.68;10.45;;;17.50;87.60;;;;;;4989588;28;20089;-69
2023/04/30 09:17:37;;;;;;;12.25;8.52;;;17.60;87.30;;;;;;4993262;28;20097;-71
2023/04/30 09:20:09;;;;;;;11.43;9.82;;;17.60;88.00;;;;;;4990120;28;20030;-72
2023/04/30 09:22:37;;;;;;;10.88;9.82;;;17.60;86.30;;;;;;4989554;28;20182;-72
2023/04/30 09:25:03;;;;;;;12.02;10.20;;;17.60;86.00;;;;;;4985143;28;20058;-70
2023/04/30 09:27:28;;;;;;;13.93;10.70;;;17.70;87.00;;;;;;4991036;28;20049;-71
2023/04/30 09:29:55;;;;;;;11.95;9.82;;;17.70;87.70;;;;;;4987025;28;20106;-73
2023/04/30 09:32:21;;;;;;;11.63;9.27;;;17.70;86.70;;;;;;4987454;28;20026;-75
2023/04/30 09:34:46;;;;;;;11.00;9.82;;;17.80;85.00;;;;;;4990317;28;20038;-68
2023/04/30 09:37:12;;;;;;;10.55;8.65;;;17.80;85.20;;;;;;4989788;28;20376;-72
2023/04/30 09:39:53;;;;;;;9.57;8.23;;;17.80;84.10;;;;;;4988104;28;20497;-71
2023/04/30 09:42:19;;;;;;;10.60;8.63;;;17.80;84.60;;;;;;4986888;28;20062;-68
2023/04/30 09:44:45;;;;;;;9.75;8.63;;;17.80;84.80;;;;;;4989466;28;20022;-71
2023/04/30 09:47:18;;;;;;;10.77;8.95;;;17.80;85.20;;;;;;4987172;28;20026;-69
2023/04/30 09:49:47;;;;;;;12.57;9.35;;;17.80;85.60;;;;;;4985606;28;20129;-68
2023/04/30 09:52:15;;;;;;;8.65;7.70;;;17.80;84.60;;;;;;4992229;28;20023;-70
2023/04/30 09:54:43;;;;;;;10.05;7.35;;;17.80;83.50;;;;;;4990729;28;20030;-68
2023/04/30 09:57:10;;;;;;;12.15;7.78;;;17.80;83.40;;;;;;4991678;28;20487;-70
2023/04/30 09:59:38;;;;;;;8.07;7.28;;;17.80;83.50;;;;;;4989447;28;20034;-71
2023/04/30 10:02:06;;;;;;;10.38;8.00;;;17.80;82.90;;;;;;4983877;28;20026;-69
2023/04/30 10:04:36;;;;;;;10.27;7.60;;;17.80;83.10;;;;;;4973956;28;20022;-72
2023/04/30 10:07:07;;;;;;;8.00;5.65;;;17.90;82.80;;;;;;4986448;28;20030;-73
2023/04/30 10:09:48;;;;;;;7.30;6.55;;;17.90;86.10;;;;;;4989141;28;21626;-70
2023/04/30 10:12:19;;;;;;;7.63;6.03;;;17.90;83.00;;;;;;4990306;28;20027;-70
2023/04/30 10:14:52;;;;;;;6.53;5.82;;;17.90;84.20;;;;;;4984864;28;20555;-68
2023/04/30 10:17:21;;;;;;;11.25;7.35;;;17.90;82.30;;;;;;4990497;28;20136;-73
2023/04/30 10:19:50;;;;;;;7.45;6.22;;;17.90;81.00;;;;;;4990626;28;20041;-69
2023/04/30 10:22:17;;;;;;;6.93;6.10;;;17.80;80.90;;;;;;4989452;28;20514;-74
2023/04/30 10:24:43;;;;;;;7.55;6.18;;;17.90;81.10;;;;;;4989456;28;20049;-74
2023/04/30 10:27:09;;;;;;;6.35;5.35;;;17.90;79.90;;;;;;4991478;28;20014;-69
2023/04/30 10:29:35;;;;;;;7.05;4.60;;;17.80;82.50;;;;;;4989935;28;20037;-72
2023/04/30 10:32:03;;;;;;;5.78;4.35;;;17.90;79.20;;;;;;4990003;28;20096;-72
2023/04/30 10:34:35;;;;;;;5.57;4.00;;;17.90;83.40;;;;;;4987989;28;20022;-67
2023/04/30 10:37:10;;;;;;;4.82;3.80;;;17.90;80.10;;;;;;4989641;28;20121;-67
2023/04/30 10:39:37;;;;;;;4.85;3.33;;;17.90;80.60;;;;;;4986999;28;20030;-67
2023/04/30 10:42:05;;;;;;;5.50;2.50;;;18.00;84.20;;;;;;4986106;28;20101;-68
2023/04/30 10:44:33;;;;;;;9.32;2.95;;;18.00;86.60;;;;;;4987331;28;20034;-70
2023/04/30 10:47:01;;;;;;;7.60;3.13;;;18.10;87.60;;;;;;4985312;28;20022;-68
2023/04/30 10:49:27;;;;;;;8.32;4.38;;;18.10;85.00;;;;;;4983380;28;20030;-72
2023/04/30 10:51:57;;;;;;;4.85;4.22;;;18.10;80.60;;;;;;4982943;28;20462;-69
2023/04/30 10:54:28;;;;;;;4.50;3.22;;;18.10;80.60;;;;;;4985403;28;20706;-72
2023/04/30 10:57:14;;;;;;;4.35;3.10;;;18.10;77.50;;;;;;4984178;28;20109;-73
2023/04/30 11:00:05;;;;;;;6.45;3.85;;;18.10;78.00;;;;;;4982624;28;20046;-68
2023/04/30 11:02:44;;;;;;;5.00;4.00;;;18.10;78.90;;;;;;4962507;28;20030;-67
2023/04/30 11:05:17;;;;;;;4.40;3.67;;;18.20;77.70;;;;;;4993262;28;20022;-69
2023/04/30 11:07:58;;;;;;;4.07;3.58;;;18.20;76.80;;;;;;4989197;28;20030;-66
2023/04/30 11:10:26;;;;;;;5.03;3.30;;;18.10;76.40;;;;;;4988014;28;20070;-69
2023/04/30 11:12:53;;;;;;;5.45;3.50;;;18.10;77.60;;;;;;4993983;28;20468;-70
2023/04/30 11:15:23;;;;;;;4.95;3.00;;;18.10;76.30;;;;;;4995317;28;20031;-72
2023/04/30 11:17:50;;;;;;;2.72;2.38;;;18.10;75.50;;;;;;4991568;28;20527;-69
2023/04/30 11:20:22;;;;;;;3.58;2.05;;;18.20;76.00;;;;;;4992598;28;20045;-73
2023/04/30 11:22:48;;;;;;;3.03;2.22;;;18.20;75.30;;;;;;4993883;28;20025;-68
2023/04/30 11:25:18;;;;;;;3.42;2.15;;;18.20;76.10;;;;;;4987737;28;20022;-72
2023/04/30 11:27:45;;;;;;;4.30;2.97;;;18.20;77.70;;;;;;4992479;28;20093;-71
2023/04/30 11:30:14;;;;;;;3.45;2.35;;;18.20;75.30;;;;;;4991546;28;20038;-74
2023/04/30 11:32:41;;;;;;;2.53;2.15;;;18.20;78.10;;;;;;4994567;28;20543;-69
2023/04/30 11:35:07;;;;;;;2.92;2.15;;;18.20;75.10;;;;;;4993929;28;20026;-69
2023/04/30 11:37:44;;;;;;;5.63;1.92;;;18.30;73.80;;;;;;4995116;28;20087;-69
2023/04/30 11:40:11;;;;;;;2.63;1.67;;;18.30;73.70;;;;;;4991506;28;20036;-67
2023/04/30 11:42:38;;;;;;;2.92;2.60;;;18.30;74.10;;;;;;4974449;28;20393;-69
2023/04/30 11:45:12;;;;;;;4.55;1.90;;;18.20;74.10;;;;;;4986293;28;20026;-67
2023/04/30 11:47:50;;;;;;;3.22;2.22;;;18.20;73.90;;;;;;4990196;28;20026;-69
2023/04/30 11:50:25;;;;;;;3.15;2.15;;;18.30;74.10;;;;;;4987902;28;20165;-69
2023/04/30 11:52:52;;;;;;;2.88;1.90;;;18.30;74.10;;;;;;4984852;28;20030;-71
2023/04/30 11:55:20;;;;;;;2.50;1.70;;;18.30;73.90;;;;;;4991148;28;20515;-66
2023/04/30 11:57:52;;;;;;;2.42;1.80;;;18.30;75.10;;;;;;4990386;28;20384;-68
2023/04/30 12:00:30;;;;;;;2.97;1.35;;;18.40;74.00;;;;;;4992548;28;20118;-66
2023/04/30 12:02:59;;;;;;;2.83;1.40;;;18.40;73.80;;;;;;4991371;28;20443;-69
2023/04/30 12:05:26;;;;;;;2.20;1.02;;;18.40;72.70;;;;;;4991137;28;20037;-67
2023/04/30 12:07:58;;;;;;;1.83;1.10;;;18.40;72.50;;;;;;4992375;28;20429;-69
2023/04/30 12:10:24;;;;;;;3.58;1.90;;;18.40;73.10;;;;;;4996860;28;20108;-67
2023/04/30 12:12:51;;;;;;;5.68;2.75;;;18.40;72.20;;;;;;4993404;28;20396;-70
2023/04/30 12:15:25;;;;;;;3.65;1.50;;;18.50;73.40;;;;;;4986164;28;20072;-75
2023/04/30 12:17:51;;;;;;;2.30;1.42;;;18.50;74.00;;;;;;4986998;28;20041;-72
2023/04/30 12:20:17;;;;;;;1.90;1.23;;;18.50;73.40;;;;;;4990245;28;20192;-68
2023/04/30 12:22:44;;;;;;;1.67;1.20;;;18.50;72.70;;;;;;4990994;28;20575;-67
2023/04/30 12:25:20;;;;;;;1.50;1.13;;;18.50;72.30;;;;;;4993236;28;20097;-66
2023/04/30 12:27:50;;;;;;;3.15;1.27;;;18.60;72.10;;;;;;4985130;28;20034;-67
2023/04/30 12:30:21;;;;;;;4.00;1.88;;;18.60;72.00;;;;;;4983152;28;20050;-67
2023/04/30 12:32:49;;;;;;;1.70;1.20;;;18.60;72.00;;;;;;4984556;28;20114;-68
2023/04/30 12:35:17;;;;;;;2.75;1.67;;;18.60;72.90;;;;;;4988115;28;20030;-70
2023/04/30 12:37:51;;;;;;;2.60;1.38;;;18.60;72.90;;;;;;4989426;28;20038;-66